Hovedside
METAR-TAF:

METAR-TAF

Lufthavner :

Port Moresby, Papua Ny-Guinea

breddegrad: 09-26S, lengdegrad: 147-13E, høyde over havet: 38 m

Gjeldene værobservasjon

Denne rapporten ble laget for 40 minutter siden, klokken 05:00 UTC
Vind 18 kt fra Sør-sørøst
Temperatur 31°C
Luftfuktighet 71%
Trykk 1007 hPa
Sikt 10 km eller mer
Spredte skyer i en høyde av 3000 ft
Brutte skyer i en høyde av 10000 ft
dis

METAR: AYPY 240500Z 16018KT 9999 HZ SCT030 BKN100 31/25 Q1007

Tid: 15:40 (05:40 UTC)

Varsel

Denne rapporten ble laget for 7 timer og 37 minutter siden, klokken 22:03 UTC
Varsel gyldig fra 24. klokken 00 UTC til 24. klokken 24 UTC
Vind 8 kt fra Sør-sørøst
Sikt 10 km eller mer
Spredte skyer i en høyde av 1800 ft
Spredte skyer i en høyde av 3500 ft

TAF: AYPY 232203Z 2400/2424 16008KT 9999 SCT018 SCT035

Værobservasjoner og værvarsel for over 4000 flyplasser (METAR- og TAF-rapporter).

Tilgjengelige stasjoner er representert av de røde og gule prikkene på kartet.

Hold musepekeren over prikken for å se navnet på stasjonen.

Klikk så for å se værobservasjoner og -varsler.

For å forandre kartet kan du klikke på den grønne knappen med svart kryss for å zoome inn, på den grønne knappen med strek for å zoome ut, eller på de grønne pilene for å se tilstøtende kart.


METAR-TAF: